Time;durP1;ratioP1;P1;durP2;ratioP2;P2;SDS_P1;SDS_P2;PMS_P1;PMS_P2;Temp;Humidity;BMP_temperature;BMP_pressure;BME280_temperature;BME280_humidity;BME280_pressure;Samples;Min_cycle;Max_cycle;Signal;HPM_P1;HPM_P2
2022/03/23 00:00:34;;;;;;;0.47;0.47;;;9.70;99.90;;;;;;20837995;28;20282;-64
2022/03/23 00:10:38;;;;;;;0.20;0.10;;;9.70;99.90;;;;;;20850708;28;20202;-64
2022/03/23 00:20:44;;;;;;;0.20;0.10;;;9.70;99.90;;;;;;20834171;28;20234;-64
2022/03/23 00:30:48;;;;;;;0.20;0.10;;;9.40;99.90;;;;;;20864870;28;20198;-63
2022/03/23 00:41:06;;;;;;;0.20;0.10;;;9.00;99.90;;;;;;20859062;28;20245;-64
2022/03/23 00:51:10;;;;;;;0.20;0.10;;;9.00;99.90;;;;;;20827197;28;20199;-64
2022/03/23 01:01:15;;;;;;;0.20;0.10;;;9.30;99.90;;;;;;20816479;28;20223;-65
2022/03/23 01:11:19;;;;;;;0.20;0.10;;;9.60;99.90;;;;;;20813300;28;20460;-65
2022/03/23 01:21:24;;;;;;;0.20;0.10;;;9.50;99.90;;;;;;20814879;28;20306;-64
2022/03/23 01:31:28;;;;;;;0.20;0.10;;;9.20;99.90;;;;;;20817595;28;20268;-64
2022/03/23 01:41:38;;;;;;;0.20;0.10;;;9.00;99.90;;;;;;20845032;28;20310;-64
2022/03/23 01:51:42;;;;;;;0.20;0.10;;;8.90;99.90;;;;;;20810608;28;20198;-63
2022/03/23 02:01:47;;;;;;;0.20;0.10;;;9.10;99.90;;;;;;20810109;28;20286;-64
2022/03/23 02:11:53;;;;;;;0.20;0.10;;;8.90;99.90;;;;;;20810377;28;20229;-64
2022/03/23 02:21:59;;;;;;;0.20;0.20;;;8.90;99.90;;;;;;20885383;28;20234;-64
2022/03/23 02:32:03;;;;;;;0.20;0.10;;;8.80;99.90;;;;;;20890269;28;20205;-63
2022/03/23 02:42:09;;;;;;;0.20;0.10;;;8.60;99.90;;;;;;20889102;28;20233;-63
2022/03/23 02:52:13;;;;;;;0.20;0.10;;;8.50;99.90;;;;;;20891458;28;20218;-63
2022/03/23 03:02:22;;;;;;;0.20;0.10;;;8.30;99.90;;;;;;20889995;28;20230;-63
2022/03/23 03:12:27;;;;;;;0.20;0.10;;;8.30;99.90;;;;;;20887598;28;20218;-63
2022/03/23 03:22:35;;;;;;;0.20;0.10;;;8.30;99.90;;;;;;20806095;28;20244;-63
2022/03/23 03:32:39;;;;;;;0.20;0.10;;;8.40;99.90;;;;;;20803938;28;20194;-63
2022/03/23 03:42:49;;;;;;;0.20;0.10;;;8.40;99.90;;;;;;20821574;28;20257;-63
2022/03/23 03:52:53;;;;;;;0.20;0.10;;;8.60;99.90;;;;;;20820886;28;20199;-63
2022/03/23 04:02:58;;;;;;;0.20;0.10;;;9.60;99.90;;;;;;20820404;28;20237;-63
2022/03/23 04:13:03;;;;;;;0.20;0.10;;;10.30;99.90;;;;;;20816140;28;20237;-64
2022/03/23 04:23:08;;;;;;;0.20;0.10;;;10.40;99.90;;;;;;20887887;28;20252;-63
2022/03/23 04:33:11;;;;;;;0.20;0.10;;;10.50;99.90;;;;;;20887624;28;20217;-63
2022/03/23 04:43:17;;;;;;;0.20;0.10;;;10.70;99.90;;;;;;20806262;28;20226;-63
2022/03/23 04:53:21;;;;;;;0.20;0.10;;;10.60;99.90;;;;;;20804694;28;20210;-65
2022/03/23 05:03:26;;;;;;;0.20;0.10;;;10.70;99.90;;;;;;20802177;28;20241;-64
2022/03/23 05:13:30;;;;;;;0.47;0.47;;;10.70;99.90;;;;;;20755033;28;1619624;-63
2022/03/23 05:23:35;;;;;;;0.20;0.10;;;10.80;99.90;;;;;;20886774;28;20230;-63
2022/03/23 05:33:39;;;;;;;0.20;0.10;;;10.90;99.90;;;;;;20887283;28;20262;-64
2022/03/23 05:43:45;;;;;;;0.20;0.10;;;10.90;99.90;;;;;;20885211;28;20241;-64
2022/03/23 05:53:48;;;;;;;0.20;0.10;;;11.00;99.90;;;;;;20884327;28;20213;-64
2022/03/23 06:03:54;;;;;;;0.20;0.10;;;11.00;99.90;;;;;;20880661;28;20237;-70
2022/03/23 06:13:58;;;;;;;0.20;0.10;;;11.20;99.90;;;;;;20883185;28;20241;-71
2022/03/23 06:24:03;;;;;;;0.20;0.10;;;11.40;99.90;;;;;;20860956;28;20249;-70
2022/03/23 06:34:07;;;;;;;0.20;0.10;;;11.50;99.90;;;;;;20863867;28;20228;-69
2022/03/23 06:44:12;;;;;;;0.20;0.10;;;11.60;99.90;;;;;;20795992;28;20417;-70
2022/03/23 06:54:17;;;;;;;0.20;0.10;;;11.80;99.90;;;;;;20791938;28;20195;-70
2022/03/23 07:04:24;;;;;;;0.30;0.30;;;11.90;99.90;;;;;;20792104;28;20235;-73
2022/03/23 07:14:29;;;;;;;0.20;0.10;;;12.00;99.90;;;;;;20805561;28;20218;-71
2022/03/23 07:24:34;;;;;;;0.20;0.10;;;12.20;99.90;;;;;;20858960;28;20442;-70
2022/03/23 07:34:43;;;;;;;0.20;0.10;;;12.30;99.90;;;;;;20812680;28;20202;-69
2022/03/23 07:44:48;;;;;;;0.20;0.10;;;12.50;99.90;;;;;;20869318;28;20245;-70
2022/03/23 07:54:52;;;;;;;0.20;0.17;;;12.60;99.90;;;;;;20873736;28;20230;-68
2022/03/23 08:04:59;;;;;;;0.20;0.10;;;12.70;99.90;;;;;;20873446;28;20230;-79
2022/03/23 08:15:02;;;;;;;0.20;0.10;;;12.80;99.90;;;;;;20803044;28;20310;-78
2022/03/23 08:25:08;;;;;;;0.20;0.10;;;12.90;99.90;;;;;;20819550;28;20241;-83
2022/03/23 08:35:12;;;;;;;0.20;0.10;;;13.20;99.90;;;;;;20856267;28;20212;-78
2022/03/23 08:45:17;;;;;;;0.20;0.10;;;13.20;99.90;;;;;;20879368;28;20733;-78
2022/03/23 08:55:23;;;;;;;0.20;0.10;;;13.60;99.90;;;;;;20829292;28;20198;-75
2022/03/23 09:05:28;;;;;;;0.20;0.10;;;13.90;99.90;;;;;;20888720;28;20256;-76
2022/03/23 09:15:32;;;;;;;0.20;0.10;;;14.10;99.90;;;;;;20886954;28;20244;-78
2022/03/23 09:25:39;;;;;;;0.33;0.33;;;14.40;99.90;;;;;;20888729;28;20236;-73
2022/03/23 09:35:43;;;;;;;0.20;0.10;;;14.20;99.90;;;;;;20867870;28;20204;-71
2022/03/23 09:45:50;;;;;;;0.20;0.10;;;13.80;99.90;;;;;;20840246;28;20248;-74
2022/03/23 09:55:54;;;;;;;0.20;0.10;;;13.90;99.90;;;;;;20855319;28;20205;-71
2022/03/23 10:06:39;;;;;;;0.20;0.10;;;13.90;99.90;;;;;;20872932;28;20285;-68
2022/03/23 10:17:14;;;;;;;0.20;0.10;;;14.00;99.90;;;;;;20866931;28;20299;-69
2022/03/23 10:27:23;;;;;;;0.20;0.10;;;13.80;99.90;;;;;;20818787;28;20222;-71
2022/03/23 10:37:27;;;;;;;0.20;0.10;;;13.80;99.90;;;;;;20826185;28;20206;-71
2022/03/23 10:47:33;;;;;;;0.20;0.10;;;14.20;99.90;;;;;;20813739;28;20232;-70
2022/03/23 10:58:22;;;;;;;0.37;0.30;;;14.10;99.90;;;;;;20818043;28;21319;-80
2022/03/23 11:08:27;;;;;;;0.20;0.10;;;14.10;99.90;;;;;;20790967;28;20230;-78
2022/03/23 11:18:32;;;;;;;1.53;1.03;;;14.10;99.90;;;;;;20825301;28;20257;-78
2022/03/23 11:28:38;;;;;;;0.20;0.10;;;15.00;99.90;;;;;;20841272;28;20226;-79
2022/03/23 11:38:42;;;;;;;0.20;0.10;;;14.80;99.90;;;;;;20844086;28;20194;-79
2022/03/23 11:49:12;;;;;;;0.20;0.10;;;15.00;99.90;;;;;;20832075;28;20223;-80
2022/03/23 11:59:20;;;;;;;0.20;0.10;;;15.40;99.90;;;;;;20842695;28;20230;-80
2022/03/23 12:09:37;;;;;;;0.20;0.10;;;15.20;99.90;;;;;;20856384;28;20298;-75
2022/03/23 12:20:09;;;;;;;0.20;0.10;;;16.80;99.90;;;;;;20835146;28;20248;-75
2022/03/23 12:30:18;;;;;;;0.20;0.10;;;16.50;99.90;;;;;;20782703;28;20242;-71
2022/03/23 12:40:21;;;;;;;0.20;0.10;;;16.90;99.90;;;;;;20827392;28;20222;-71
2022/03/23 13:01:10;;;;;;;0.20;0.20;;;18.70;99.90;;;;;;20838905;28;20351;-70
2022/03/23 13:11:25;;;;;;;0.20;0.00;;;18.40;99.90;;;;;;20791001;28;20194;-71
2022/03/23 13:21:30;;;;;;;0.20;0.10;;;17.00;99.90;;;;;;20817844;28;20231;-71
2022/03/23 13:31:38;;;;;;;0.20;0.10;;;19.50;99.90;;;;;;20789178;28;20325;-70
2022/03/23 13:52:07;;;;;;;0.20;0.10;;;20.30;99.90;;;;;;20876850;28;20253;-79
2022/03/23 14:02:13;;;;;;;0.20;0.00;;;21.20;99.90;;;;;;20882289;28;20257;-77
2022/03/23 14:12:39;;;;;;;0.20;0.10;;;20.40;99.90;;;;;;20885235;28;20222;-76
2022/03/23 14:23:04;;;;;;;0.20;0.00;;;20.50;99.90;;;;;;20878508;28;20238;-80
2022/03/23 14:33:09;;;;;;;0.30;0.30;;;22.80;99.90;;;;;;20874221;28;20212;-69
2022/03/23 14:43:27;;;;;;;0.20;0.00;;;22.20;99.90;;;;;;20872342;28;20304;-70
2022/03/23 14:53:33;;;;;;;0.20;0.07;;;21.20;99.90;;;;;;20871417;28;20202;-70
2022/03/23 15:03:38;;;;;;;0.20;0.00;;;22.70;99.90;;;;;;20871038;28;20248;-70
2022/03/23 15:13:43;;;;;;;0.20;0.00;;;22.50;99.90;;;;;;20869284;28;20294;-70
2022/03/23 15:23:49;;;;;;;0.20;0.00;;;22.00;99.90;;;;;;20870697;28;20519;-70
2022/03/23 15:33:55;;;;;;;0.20;0.00;;;21.50;99.90;;;;;;20863316;28;20196;-69
2022/03/23 15:44:05;;;;;;;0.20;0.10;;;20.50;99.90;;;;;;20866138;28;20718;-71
2022/03/23 15:54:11;;;;;;;0.20;0.10;;;18.40;99.90;;;;;;20882861;28;20212;-69
2022/03/23 16:04:15;;;;;;;0.20;0.10;;;17.90;99.90;;;;;;20884424;28;20923;-72
2022/03/23 16:14:20;;;;;;;0.20;0.10;;;20.30;99.90;;;;;;20882718;28;20236;-72
2022/03/23 16:24:24;;;;;;;0.20;0.17;;;19.10;99.90;;;;;;20883421;28;20256;-80
2022/03/23 16:34:29;;;;;;;0.20;0.10;;;17.40;99.90;;;;;;20866909;28;20198;-77
2022/03/23 16:44:34;;;;;;;0.20;0.10;;;15.80;99.90;;;;;;20843314;28;20228;-71
2022/03/23 16:54:39;;;;;;;0.20;0.00;;;15.50;99.90;;;;;;20864141;28;20270;-70
2022/03/23 17:15:10;;;;;;;0.20;0.10;;;15.20;99.90;;;;;;20877882;28;20226;-69
2022/03/23 17:25:14;;;;;;;0.83;0.83;;;14.90;99.90;;;;;;20882995;28;20217;-71
2022/03/23 17:35:22;;;;;;;0.20;0.10;;;14.40;99.90;;;;;;20879490;28;20202;-69
2022/03/23 17:45:26;;;;;;;0.20;0.00;;;13.80;99.90;;;;;;20799687;28;20231;-70
2022/03/23 17:55:31;;;;;;;0.20;0.10;;;14.00;99.90;;;;;;20799469;28;20266;-70
2022/03/23 18:05:35;;;;;;;0.20;0.10;;;13.70;99.90;;;;;;20799871;28;20294;-71
2022/03/23 18:15:40;;;;;;;0.20;0.10;;;13.60;99.90;;;;;;20826859;28;20258;-79
2022/03/23 18:25:44;;;;;;;0.20;0.10;;;13.60;99.90;;;;;;20881092;28;20236;-80
2022/03/23 18:35:50;;;;;;;0.20;0.10;;;13.40;99.90;;;;;;20882572;28;20274;-75
2022/03/23 18:45:57;;;;;;;0.20;0.10;;;13.10;99.90;;;;;;20880117;28;20248;-72
2022/03/23 18:56:02;;;;;;;0.20;0.10;;;13.40;99.90;;;;;;20881767;28;20211;-81
2022/03/23 19:06:06;;;;;;;0.20;0.10;;;13.10;99.90;;;;;;20883278;28;20256;-82
2022/03/23 19:16:12;;;;;;;0.20;0.10;;;13.00;99.90;;;;;;20877412;28;20226;-70
2022/03/23 19:26:16;;;;;;;0.20;0.10;;;12.90;99.90;;;;;;20880363;28;20281;-71
2022/03/23 19:36:21;;;;;;;0.30;0.30;;;12.70;99.90;;;;;;20860909;28;20210;-70
2022/03/23 19:46:27;;;;;;;0.20;0.10;;;12.50;99.90;;;;;;20882805;28;20237;-76
2022/03/23 19:56:32;;;;;;;0.20;0.20;;;12.30;99.90;;;;;;20863002;28;20194;-82
2022/03/23 20:06:36;;;;;;;0.20;0.10;;;12.30;99.90;;;;;;20863844;28;20241;-81
2022/03/23 20:16:41;;;;;;;0.20;0.10;;;12.10;99.90;;;;;;20935172;28;20380;-77
2022/03/23 20:26:45;;;;;;;0.20;0.10;;;12.00;99.90;;;;;;20958361;28;20287;-80
2022/03/23 20:36:50;;;;;;;0.20;0.10;;;11.90;99.90;;;;;;20916211;28;20207;-79
2022/03/23 20:46:54;;;;;;;0.20;0.10;;;11.80;99.90;;;;;;20810078;28;20229;-70
2022/03/23 20:57:00;;;;;;;0.20;0.10;;;11.80;99.90;;;;;;20809303;28;20198;-70
2022/03/23 21:07:04;;;;;;;0.20;0.10;;;11.60;99.90;;;;;;20811279;28;20230;-71
2022/03/23 21:17:15;;;;;;;0.20;0.10;;;11.60;99.90;;;;;;20850327;28;20218;-70
2022/03/23 21:27:20;;;;;;;0.20;0.10;;;11.50;99.90;;;;;;20892158;28;20234;-70
2022/03/23 21:37:26;;;;;;;0.20;0.10;;;11.50;99.90;;;;;;20892013;28;20214;-69
2022/03/23 21:47:29;;;;;;;0.20;0.10;;;11.50;99.90;;;;;;20890189;28;20252;-71
2022/03/23 21:57:36;;;;;;;0.20;0.10;;;11.50;99.90;;;;;;20891613;28;20312;-69
2022/03/23 22:07:41;;;;;;;0.20;0.10;;;11.40;99.90;;;;;;20890382;28;20234;-70
2022/03/23 22:17:46;;;;;;;0.20;0.10;;;11.30;99.90;;;;;;20887729;28;20285;-80
2022/03/23 22:27:50;;;;;;;0.20;0.10;;;11.30;99.90;;;;;;20889604;28;20264;-77
2022/03/23 22:37:55;;;;;;;0.20;0.10;;;11.20;99.90;;;;;;20887331;28;20217;-69
2022/03/23 22:48:00;;;;;;;0.37;0.37;;;11.10;99.90;;;;;;20891813;28;20241;-77
2022/03/23 22:58:05;;;;;;;0.20;0.10;;;11.10;99.90;;;;;;20873850;28;20225;-78
2022/03/23 23:08:09;;;;;;;0.20;0.10;;;11.20;99.90;;;;;;20890723;28;20241;-79
2022/03/23 23:18:14;;;;;;;0.20;0.10;;;11.10;99.90;;;;;;20888607;28;20293;-78
2022/03/23 23:28:30;;;;;;;0.20;0.10;;;11.20;99.90;;;;;;20890233;28;20241;-77
2022/03/23 23:38:36;;;;;;;0.20;0.10;;;11.20;99.90;;;;;;20889184;28;20225;-77
2022/03/23 23:48:40;;;;;;;0.20;0.10;;;11.20;99.90;;;;;;20841459;28;20230;-78
2022/03/23 23:58:45;;;;;;;0.20;0.10;;;11.30;99.90;;;;;;20813411;28;20202;-75
